sensor_id;sensor_type;location;lat;lon;timestamp;pressure;altitude;pressure_sealevel;temperature;humidity
10348;BME280;5220;43.192;23.284;2022-09-16T00:00:04;96349.97;;;26.76;37.61
10348;BME280;5220;43.192;23.284;2022-09-16T00:02:32;96350.78;;;26.76;36.94
10348;BME280;5220;43.192;23.284;2022-09-16T00:05:25;96350.72;;;26.83;36.80
10348;BME280;5220;43.192;23.284;2022-09-16T00:07:53;96344.47;;;26.89;36.08
10348;BME280;5220;43.192;23.284;2022-09-16T00:10:21;96354.34;;;27.00;36.14
10348;BME280;5220;43.192;23.284;2022-09-16T00:12:48;96350.91;;;26.99;35.96
10348;BME280;5220;43.192;23.284;2022-09-16T00:15:16;96354.88;;;27.08;36.33
10348;BME280;5220;43.192;23.284;2022-09-16T00:17:43;96359.50;;;27.13;36.03
10348;BME280;5220;43.192;23.284;2022-09-16T00:20:12;96346.59;;;27.10;35.95
10348;BME280;5220;43.192;23.284;2022-09-16T00:22:39;96343.56;;;27.06;36.14
10348;BME280;5220;43.192;23.284;2022-09-16T00:28:29;96356.09;;;27.06;36.64
10348;BME280;5220;43.192;23.284;2022-09-16T00:30:57;96348.69;;;27.08;36.26
10348;BME280;5220;43.192;23.284;2022-09-16T00:33:24;96358.91;;;26.99;36.04
10348;BME280;5220;43.192;23.284;2022-09-16T00:35:51;96356.91;;;26.95;36.67
10348;BME280;5220;43.192;23.284;2022-09-16T00:38:18;96353.66;;;26.93;37.04
10348;BME280;5220;43.192;23.284;2022-09-16T00:40:46;96374.41;;;26.91;36.32
10348;BME280;5220;43.192;23.284;2022-09-16T00:43:21;96367.00;;;26.93;36.81
10348;BME280;5220;43.192;23.284;2022-09-16T00:45:55;96359.09;;;26.86;37.26
10348;BME280;5220;43.192;23.284;2022-09-16T00:48:28;96363.44;;;26.99;37.44
10348;BME280;5220;43.192;23.284;2022-09-16T00:50:58;96372.59;;;27.03;37.11
10348;BME280;5220;43.192;23.284;2022-09-16T00:53:29;96340.44;;;26.98;38.16
10348;BME280;5220;43.192;23.284;2022-09-16T00:55:58;96349.00;;;27.00;37.59
10348;BME280;5220;43.192;23.284;2022-09-16T00:58:30;96325.81;;;27.00;38.44
10348;BME280;5220;43.192;23.284;2022-09-16T01:01:02;96324.06;;;27.06;37.96
10348;BME280;5220;43.192;23.284;2022-09-16T01:03:31;96326.06;;;26.99;37.55
10348;BME280;5220;43.192;23.284;2022-09-16T01:06:01;96330.00;;;26.96;37.45
10348;BME280;5220;43.192;23.284;2022-09-16T01:08:28;96337.88;;;27.03;37.36
10348;BME280;5220;43.192;23.284;2022-09-16T01:10:55;96360.19;;;27.08;37.23
10348;BME280;5220;43.192;23.284;2022-09-16T01:13:24;96376.69;;;27.17;37.53
10348;BME280;5220;43.192;23.284;2022-09-16T01:15:55;96375.66;;;27.18;36.99
10348;BME280;5220;43.192;23.284;2022-09-16T01:18:30;96386.56;;;27.28;36.56
10348;BME280;5220;43.192;23.284;2022-09-16T01:21:20;96387.38;;;27.17;36.66
10348;BME280;5220;43.192;23.284;2022-09-16T01:30:03;96384.97;;;27.27;36.84
10348;BME280;5220;43.192;23.284;2022-09-16T01:32:41;96382.25;;;27.15;36.21
10348;BME280;5220;43.192;23.284;2022-09-16T01:38:46;96373.56;;;27.08;36.21
10348;BME280;5220;43.192;23.284;2022-09-16T01:41:18;96370.16;;;27.01;36.47
10348;BME280;5220;43.192;23.284;2022-09-16T01:43:53;96359.69;;;27.00;36.98
10348;BME280;5220;43.192;23.284;2022-09-16T01:46:29;96368.03;;;26.92;36.88
10348;BME280;5220;43.192;23.284;2022-09-16T01:49:11;96353.88;;;26.91;37.28
10348;BME280;5220;43.192;23.284;2022-09-16T01:51:43;96348.94;;;26.77;37.15
10348;BME280;5220;43.192;23.284;2022-09-16T01:54:13;96378.25;;;26.83;37.36
10348;BME280;5220;43.192;23.284;2022-09-16T01:56:49;96380.53;;;26.80;37.88
10348;BME280;5220;43.192;23.284;2022-09-16T01:59:22;96389.13;;;26.82;38.62
10348;BME280;5220;43.192;23.284;2022-09-16T02:01:53;96378.75;;;26.73;38.02
10348;BME280;5220;43.192;23.284;2022-09-16T02:04:27;96393.03;;;26.79;38.58
10348;BME280;5220;43.192;23.284;2022-09-16T02:06:55;96384.19;;;26.67;37.62
10348;BME280;5220;43.192;23.284;2022-09-16T02:09:27;96387.25;;;26.52;38.16
10348;BME280;5220;43.192;23.284;2022-09-16T02:11:57;96392.59;;;26.52;38.01
10348;BME280;5220;43.192;23.284;2022-09-16T02:14:32;96401.00;;;26.67;37.68
10348;BME280;5220;43.192;23.284;2022-09-16T02:17:02;96389.69;;;26.54;37.80
10348;BME280;5220;43.192;23.284;2022-09-16T02:19:35;96376.69;;;26.46;38.05
10348;BME280;5220;43.192;23.284;2022-09-16T02:22:07;96385.19;;;26.54;37.58
10348;BME280;5220;43.192;23.284;2022-09-16T02:24:42;96405.34;;;26.50;37.40
10348;BME280;5220;43.192;23.284;2022-09-16T02:27:13;96396.66;;;26.55;37.40
10348;BME280;5220;43.192;23.284;2022-09-16T02:29:43;96392.59;;;26.52;37.71
10348;BME280;5220;43.192;23.284;2022-09-16T02:35:36;96393.19;;;26.54;36.95
10348;BME280;5220;43.192;23.284;2022-09-16T02:38:09;96384.50;;;26.59;37.20
10348;BME280;5220;43.192;23.284;2022-09-16T02:40:41;96366.06;;;26.69;37.56
10348;BME280;5220;43.192;23.284;2022-09-16T02:43:11;96369.38;;;26.53;36.84
10348;BME280;5220;43.192;23.284;2022-09-16T02:45:44;96373.84;;;26.59;37.06
10348;BME280;5220;43.192;23.284;2022-09-16T02:48:16;96385.84;;;26.50;37.36
10348;BME280;5220;43.192;23.284;2022-09-16T02:51:01;96397.78;;;26.47;37.25
10348;BME280;5220;43.192;23.284;2022-09-16T02:53:37;96406.16;;;26.51;37.35
10348;BME280;5220;43.192;23.284;2022-09-16T02:56:12;96405.78;;;26.47;37.57
10348;BME280;5220;43.192;23.284;2022-09-16T02:58:41;96411.34;;;26.46;37.61
10348;BME280;5220;43.192;23.284;2022-09-16T03:01:10;96422.03;;;26.46;37.12
10348;BME280;5220;43.192;23.284;2022-09-16T03:03:39;96429.41;;;26.44;37.37
10348;BME280;5220;43.192;23.284;2022-09-16T03:06:14;96428.38;;;26.45;37.64
10348;BME280;5220;43.192;23.284;2022-09-16T03:08:41;96434.16;;;26.42;37.06
10348;BME280;5220;43.192;23.284;2022-09-16T03:11:19;96437.09;;;26.40;37.50
10348;BME280;5220;43.192;23.284;2022-09-16T03:13:53;96463.44;;;26.30;37.97
10348;BME280;5220;43.192;23.284;2022-09-16T03:16:28;96457.38;;;26.41;37.79
10348;BME280;5220;43.192;23.284;2022-09-16T03:19:04;96429.81;;;26.29;38.94
10348;BME280;5220;43.192;23.284;2022-09-16T03:21:44;96420.50;;;26.13;39.08
10348;BME280;5220;43.192;23.284;2022-09-16T03:24:23;96418.75;;;26.07;39.68
10348;BME280;5220;43.192;23.284;2022-09-16T03:26:56;96418.25;;;26.17;39.80
10348;BME280;5220;43.192;23.284;2022-09-16T03:29:30;96410.66;;;26.14;40.11
10348;BME280;5220;43.192;23.284;2022-09-16T03:32:13;96405.28;;;26.02;40.02
10348;BME280;5220;43.192;23.284;2022-09-16T03:38:10;96378.16;;;25.87;40.43
10348;BME280;5220;43.192;23.284;2022-09-16T03:40:37;96374.94;;;25.79;41.45
10348;BME280;5220;43.192;23.284;2022-09-16T03:43:09;96380.22;;;25.85;41.38
10348;BME280;5220;43.192;23.284;2022-09-16T03:45:37;96392.53;;;25.86;41.27
10348;BME280;5220;43.192;23.284;2022-09-16T03:48:05;96388.13;;;25.74;41.88
10348;BME280;5220;43.192;23.284;2022-09-16T03:50:32;96383.25;;;25.89;41.70
10348;BME280;5220;43.192;23.284;2022-09-16T03:52:58;96393.59;;;25.79;42.55
10348;BME280;5220;43.192;23.284;2022-09-16T03:55:27;96393.72;;;25.90;42.36
10348;BME280;5220;43.192;23.284;2022-09-16T03:57:54;96390.22;;;25.90;42.62
10348;BME280;5220;43.192;23.284;2022-09-16T04:00:21;96389.69;;;25.81;42.88
10348;BME280;5220;43.192;23.284;2022-09-16T04:02:48;96389.53;;;25.76;43.37
10348;BME280;5220;43.192;23.284;2022-09-16T04:08:36;96374.28;;;25.65;43.52
10348;BME280;5220;43.192;23.284;2022-09-16T04:11:05;96362.88;;;25.76;43.73
10348;BME280;5220;43.192;23.284;2022-09-16T04:13:34;96372.78;;;25.69;43.90
10348;BME280;5220;43.192;23.284;2022-09-16T04:16:02;96378.19;;;25.62;43.41
10348;BME280;5220;43.192;23.284;2022-09-16T04:21:38;96378.38;;;25.86;43.48
10348;BME280;5220;43.192;23.284;2022-09-16T04:24:06;96372.00;;;25.69;44.11
10348;BME280;5220;43.192;23.284;2022-09-16T04:26:34;96377.75;;;25.65;44.21
10348;BME280;5220;43.192;23.284;2022-09-16T04:29:00;96366.56;;;25.57;44.05
10348;BME280;5220;43.192;23.284;2022-09-16T04:31:27;96356.44;;;25.65;44.35
10348;BME280;5220;43.192;23.284;2022-09-16T04:40:24;96328.38;;;25.81;43.84
10348;BME280;5220;43.192;23.284;2022-09-16T04:42:52;96352.91;;;25.90;43.73
10348;BME280;5220;43.192;23.284;2022-09-16T04:45:18;96348.53;;;25.95;43.60
10348;BME280;5220;43.192;23.284;2022-09-16T04:47:45;96331.53;;;25.96;43.57
10348;BME280;5220;43.192;23.284;2022-09-16T04:50:12;96343.72;;;26.04;43.81
10348;BME280;5220;43.192;23.284;2022-09-16T04:52:39;96334.63;;;26.11;43.84
10348;BME280;5220;43.192;23.284;2022-09-16T04:55:31;96333.97;;;26.16;43.48
10348;BME280;5220;43.192;23.284;2022-09-16T04:58:00;96344.53;;;26.23;43.87
10348;BME280;5220;43.192;23.284;2022-09-16T05:00:26;96342.03;;;26.28;43.11
10348;BME280;5220;43.192;23.284;2022-09-16T05:03:03;96341.34;;;26.32;42.29
10348;BME280;5220;43.192;23.284;2022-09-16T05:05:30;96344.25;;;26.31;42.53
10348;BME280;5220;43.192;23.284;2022-09-16T05:07:57;96351.19;;;26.32;41.70
10348;BME280;5220;43.192;23.284;2022-09-16T05:10:24;96366.66;;;26.41;41.15
10348;BME280;5220;43.192;23.284;2022-09-16T05:12:52;96348.00;;;26.41;41.76
10348;BME280;5220;43.192;23.284;2022-09-16T05:18:43;96337.19;;;26.36;41.55
10348;BME280;5220;43.192;23.284;2022-09-16T05:21:12;96343.72;;;26.40;40.82
10348;BME280;5220;43.192;23.284;2022-09-16T05:26:49;96336.06;;;26.44;41.11
10348;BME280;5220;43.192;23.284;2022-09-16T05:29:16;96319.09;;;26.38;41.27
10348;BME280;5220;43.192;23.284;2022-09-16T05:31:44;96317.38;;;26.44;40.53
10348;BME280;5220;43.192;23.284;2022-09-16T05:34:47;96308.91;;;26.47;41.03
10348;BME280;5220;43.192;23.284;2022-09-16T05:37:15;96314.38;;;26.40;40.79
10348;BME280;5220;43.192;23.284;2022-09-16T05:39:42;96296.84;;;26.44;41.35
10348;BME280;5220;43.192;23.284;2022-09-16T05:42:09;96300.72;;;26.48;41.95
10348;BME280;5220;43.192;23.284;2022-09-16T05:48:21;96302.78;;;26.46;41.73
10348;BME280;5220;43.192;23.284;2022-09-16T05:50:53;96297.91;;;26.43;41.46
10348;BME280;5220;43.192;23.284;2022-09-16T05:53:21;96295.13;;;26.50;41.99
10348;BME280;5220;43.192;23.284;2022-09-16T05:55:56;96293.16;;;26.45;42.45
10348;BME280;5220;43.192;23.284;2022-09-16T05:58:24;96290.03;;;26.48;41.37
10348;BME280;5220;43.192;23.284;2022-09-16T06:00:51;96304.03;;;26.44;41.83
10348;BME280;5220;43.192;23.284;2022-09-16T06:03:18;96288.22;;;26.60;40.63
10348;BME280;5220;43.192;23.284;2022-09-16T06:05:44;96285.09;;;26.63;39.65
10348;BME280;5220;43.192;23.284;2022-09-16T06:08:13;96289.75;;;26.68;40.28
10348;BME280;5220;43.192;23.284;2022-09-16T06:10:40;96299.06;;;26.77;40.31
10348;BME280;5220;43.192;23.284;2022-09-16T06:13:07;96298.53;;;26.87;39.91
10348;BME280;5220;43.192;23.284;2022-09-16T06:15:34;96297.97;;;26.96;40.28
10348;BME280;5220;43.192;23.284;2022-09-16T06:18:02;96298.66;;;27.03;39.41
10348;BME280;5220;43.192;23.284;2022-09-16T06:20:29;96292.97;;;27.11;39.13
10348;BME280;5220;43.192;23.284;2022-09-16T06:22:56;96297.59;;;27.16;39.93
10348;BME280;5220;43.192;23.284;2022-09-16T06:25:26;96303.19;;;27.14;39.03
10348;BME280;5220;43.192;23.284;2022-09-16T06:27:53;96300.03;;;27.06;39.26
10348;BME280;5220;43.192;23.284;2022-09-16T06:30:20;96303.56;;;27.18;39.87
10348;BME280;5220;43.192;23.284;2022-09-16T06:32:47;96300.97;;;27.35;38.72
10348;BME280;5220;43.192;23.284;2022-09-16T06:38:35;96318.06;;;27.34;39.19
10348;BME280;5220;43.192;23.284;2022-09-16T06:41:06;96309.09;;;27.28;39.79
10348;BME280;5220;43.192;23.284;2022-09-16T06:43:34;96314.59;;;27.33;39.51
10348;BME280;5220;43.192;23.284;2022-09-16T06:46:03;96323.66;;;27.44;40.20
10348;BME280;5220;43.192;23.284;2022-09-16T06:48:31;96330.19;;;27.48;40.02
10348;BME280;5220;43.192;23.284;2022-09-16T06:50:59;96328.63;;;27.40;39.71
10348;BME280;5220;43.192;23.284;2022-09-16T06:53:27;96339.34;;;27.63;40.93
10348;BME280;5220;43.192;23.284;2022-09-16T06:55:54;96350.38;;;27.78;41.70
10348;BME280;5220;43.192;23.284;2022-09-16T06:58:22;96340.94;;;27.88;42.58
10348;BME280;5220;43.192;23.284;2022-09-16T07:00:49;96346.88;;;27.90;40.66
10348;BME280;5220;43.192;23.284;2022-09-16T07:03:16;96332.78;;;27.94;41.58
10348;BME280;5220;43.192;23.284;2022-09-16T07:05:43;96334.66;;;27.94;40.64
10348;BME280;5220;43.192;23.284;2022-09-16T07:08:11;96335.59;;;28.11;40.26
10348;BME280;5220;43.192;23.284;2022-09-16T07:10:38;96338.84;;;28.01;40.59
10348;BME280;5220;43.192;23.284;2022-09-16T07:13:04;96337.75;;;28.02;40.83
10348;BME280;5220;43.192;23.284;2022-09-16T07:15:32;96345.34;;;28.05;40.98
10348;BME280;5220;43.192;23.284;2022-09-16T07:17:59;96340.69;;;28.12;41.18
10348;BME280;5220;43.192;23.284;2022-09-16T07:20:26;96335.78;;;28.21;41.02
10348;BME280;5220;43.192;23.284;2022-09-16T07:22:53;96338.09;;;28.29;42.03
10348;BME280;5220;43.192;23.284;2022-09-16T07:25:19;96344.59;;;28.33;41.99
10348;BME280;5220;43.192;23.284;2022-09-16T07:27:46;96346.31;;;28.39;42.16
10348;BME280;5220;43.192;23.284;2022-09-16T07:30:13;96330.06;;;28.29;43.07
10348;BME280;5220;43.192;23.284;2022-09-16T07:32:47;96347.41;;;28.26;43.98
10348;BME280;5220;43.192;23.284;2022-09-16T07:38:35;96362.78;;;27.96;45.54
10348;BME280;5220;43.192;23.284;2022-09-16T07:41:04;96372.94;;;27.83;46.36
10348;BME280;5220;43.192;23.284;2022-09-16T07:43:31;96374.09;;;27.63;46.73
10348;BME280;5220;43.192;23.284;2022-09-16T07:45:59;96364.56;;;27.67;47.01
10348;BME280;5220;43.192;23.284;2022-09-16T07:48:30;96383.63;;;27.71;47.21
10348;BME280;5220;43.192;23.284;2022-09-16T07:51:00;96385.03;;;27.73;47.36
10348;BME280;5220;43.192;23.284;2022-09-16T07:53:28;96382.22;;;27.68;47.40
10348;BME280;5220;43.192;23.284;2022-09-16T07:56:26;96392.22;;;27.61;47.76
10348;BME280;5220;43.192;23.284;2022-09-16T07:58:53;96401.19;;;27.55;48.17
10348;BME280;5220;43.192;23.284;2022-09-16T08:01:23;96390.25;;;27.45;48.55
10348;BME280;5220;43.192;23.284;2022-09-16T08:03:59;96403.44;;;27.40;48.67
10348;BME280;5220;43.192;23.284;2022-09-16T08:06:28;96397.41;;;27.33;49.67
10348;BME280;5220;43.192;23.284;2022-09-16T08:09:30;96406.66;;;27.31;49.25
10348;BME280;5220;43.192;23.284;2022-09-16T08:11:58;96410.13;;;27.08;50.26
10348;BME280;5220;43.192;23.284;2022-09-16T08:14:24;96404.88;;;27.01;49.36
10348;BME280;5220;43.192;23.284;2022-09-16T08:16:51;96398.38;;;27.09;49.74
10348;BME280;5220;43.192;23.284;2022-09-16T08:19:22;96398.25;;;27.04;49.03
10348;BME280;5220;43.192;23.284;2022-09-16T08:21:50;96389.31;;;26.98;48.94
10348;BME280;5220;43.192;23.284;2022-09-16T08:27:39;96397.69;;;27.02;48.98
10348;BME280;5220;43.192;23.284;2022-09-16T08:30:07;96390.59;;;27.07;49.11
10348;BME280;5220;43.192;23.284;2022-09-16T08:32:34;96393.50;;;27.06;49.06
10348;BME280;5220;43.192;23.284;2022-09-16T08:35:05;96394.66;;;27.10;49.82
10348;BME280;5220;43.192;23.284;2022-09-16T08:37:44;96397.69;;;27.13;49.50
10348;BME280;5220;43.192;23.284;2022-09-16T08:40:13;96383.06;;;27.16;49.21
10348;BME280;5220;43.192;23.284;2022-09-16T08:42:52;96383.88;;;27.16;49.37
10348;BME280;5220;43.192;23.284;2022-09-16T08:45:27;96377.28;;;27.19;49.56
10348;BME280;5220;43.192;23.284;2022-09-16T08:48:04;96377.06;;;27.20;49.89
10348;BME280;5220;43.192;23.284;2022-09-16T08:50:39;96378.91;;;27.20;50.09
10348;BME280;5220;43.192;23.284;2022-09-16T08:53:13;96375.66;;;27.18;49.65
10348;BME280;5220;43.192;23.284;2022-09-16T08:55:46;96389.13;;;27.23;49.67
10348;BME280;5220;43.192;23.284;2022-09-16T09:01:40;96391.91;;;27.28;50.26
10348;BME280;5220;43.192;23.284;2022-09-16T09:04:08;96388.66;;;27.26;50.66
10348;BME280;5220;43.192;23.284;2022-09-16T09:06:51;96397.50;;;27.27;50.50
10348;BME280;5220;43.192;23.284;2022-09-16T09:09:39;96395.28;;;27.23;50.76
10348;BME280;5220;43.192;23.284;2022-09-16T09:12:13;96394.84;;;27.27;51.14
10348;BME280;5220;43.192;23.284;2022-09-16T09:14:59;96389.25;;;27.28;51.11
10348;BME280;5220;43.192;23.284;2022-09-16T09:17:33;96405.88;;;27.30;51.24
10348;BME280;5220;43.192;23.284;2022-09-16T09:20:12;96417.59;;;27.29;51.46
10348;BME280;5220;43.192;23.284;2022-09-16T09:23:06;96415.38;;;27.26;51.88
10348;BME280;5220;43.192;23.284;2022-09-16T09:29:13;96402.84;;;27.27;51.13
10348;BME280;5220;43.192;23.284;2022-09-16T09:31:47;96395.03;;;27.25;51.39
10348;BME280;5220;43.192;23.284;2022-09-16T09:41:07;96395.28;;;27.23;52.85
10348;BME280;5220;43.192;23.284;2022-09-16T09:43:40;96396.09;;;27.24;54.38
10348;BME280;5220;43.192;23.284;2022-09-16T09:46:14;96401.09;;;27.20;53.86
10348;BME280;5220;43.192;23.284;2022-09-16T09:48:46;96393.44;;;27.24;55.63
10348;BME280;5220;43.192;23.284;2022-09-16T09:51:21;96386.34;;;27.18;55.61
10348;BME280;5220;43.192;23.284;2022-09-16T09:53:54;96401.91;;;27.21;56.27
10348;BME280;5220;43.192;23.284;2022-09-16T09:56:27;96394.69;;;27.21;55.83
10348;BME280;5220;43.192;23.284;2022-09-16T09:59:01;96402.69;;;27.21;56.17
10348;BME280;5220;43.192;23.284;2022-09-16T10:01:29;96386.81;;;26.85;56.17
10348;BME280;5220;43.192;23.284;2022-09-16T10:03:56;96386.63;;;26.68;55.32
10348;BME280;5220;43.192;23.284;2022-09-16T10:06:27;96371.25;;;26.52;50.01
10348;BME280;5220;43.192;23.284;2022-09-16T10:08:56;96361.25;;;26.48;49.53
10348;BME280;5220;43.192;23.284;2022-09-16T10:11:27;96362.66;;;26.50;49.01
10348;BME280;5220;43.192;23.284;2022-09-16T10:13:57;96387.19;;;26.59;48.35
10348;BME280;5220;43.192;23.284;2022-09-16T10:16:27;96400.53;;;26.59;48.98
10348;BME280;5220;43.192;23.284;2022-09-16T10:18:57;96418.88;;;26.67;48.44
10348;BME280;5220;43.192;23.284;2022-09-16T10:21:37;96429.63;;;26.60;48.65
10348;BME280;5220;43.192;23.284;2022-09-16T10:24:41;96430.25;;;26.44;47.23
10348;BME280;5220;43.192;23.284;2022-09-16T10:27:21;96448.03;;;26.50;47.41
10348;BME280;5220;43.192;23.284;2022-09-16T10:30:10;96452.19;;;26.46;47.99
10348;BME280;5220;43.192;23.284;2022-09-16T10:32:45;96452.84;;;26.42;46.20
10348;BME280;5220;43.192;23.284;2022-09-16T10:35:17;96450.25;;;26.35;46.46
10348;BME280;5220;43.192;23.284;2022-09-16T10:37:50;96442.63;;;26.21;46.74
10348;BME280;5220;43.192;23.284;2022-09-16T10:40:17;96440.91;;;26.26;46.66
10348;BME280;5220;43.192;23.284;2022-09-16T10:42:47;96436.75;;;26.12;47.34
10348;BME280;5220;43.192;23.284;2022-09-16T10:45:24;96419.28;;;26.16;47.63
10348;BME280;5220;43.192;23.284;2022-09-16T10:47:55;96417.28;;;26.11;48.72
10348;BME280;5220;43.192;23.284;2022-09-16T10:50:23;96405.19;;;26.09;46.93
10348;BME280;5220;43.192;23.284;2022-09-16T10:52:51;96406.09;;;26.03;47.20
10348;BME280;5220;43.192;23.284;2022-09-16T10:55:26;96396.72;;;25.94;47.70
10348;BME280;5220;43.192;23.284;2022-09-16T10:58:06;96381.19;;;25.91;48.07
10348;BME280;5220;43.192;23.284;2022-09-16T11:00:39;96372.91;;;25.81;48.16
10348;BME280;5220;43.192;23.284;2022-09-16T11:06:27;96354.75;;;25.89;49.21
10348;BME280;5220;43.192;23.284;2022-09-16T11:09:04;96349.63;;;25.88;48.81
10348;BME280;5220;43.192;23.284;2022-09-16T11:11:43;96327.97;;;25.84;48.99
10348;BME280;5220;43.192;23.284;2022-09-16T11:14:21;96298.88;;;25.83;48.85
10348;BME280;5220;43.192;23.284;2022-09-16T11:17:01;96300.47;;;25.65;48.23
10348;BME280;5220;43.192;23.284;2022-09-16T11:19:45;96282.28;;;25.62;48.31
10348;BME280;5220;43.192;23.284;2022-09-16T11:22:20;96292.59;;;25.59;48.63
10348;BME280;5220;43.192;23.284;2022-09-16T11:28:42;96339.72;;;25.77;47.21
10348;BME280;5220;43.192;23.284;2022-09-16T11:31:22;96337.38;;;25.69;46.26
10348;BME280;5220;43.192;23.284;2022-09-16T11:37:16;96315.59;;;25.72;42.93
10348;BME280;5220;43.192;23.284;2022-09-16T11:39:59;96303.44;;;25.76;42.58
10348;BME280;5220;43.192;23.284;2022-09-16T11:42:33;96308.09;;;25.98;43.22
10348;BME280;5220;43.192;23.284;2022-09-16T11:45:39;96300.78;;;25.94;44.50
10348;BME280;5220;43.192;23.284;2022-09-16T11:48:28;96313.19;;;26.00;44.69
10348;BME280;5220;43.192;23.284;2022-09-16T11:51:02;96311.50;;;26.05;46.17
10348;BME280;5220;43.192;23.284;2022-09-16T11:53:42;96301.13;;;25.97;46.92
10348;BME280;5220;43.192;23.284;2022-09-16T11:56:16;96305.19;;;26.00;45.66
10348;BME280;5220;43.192;23.284;2022-09-16T11:58:47;96309.78;;;26.11;45.49
10348;BME280;5220;43.192;23.284;2022-09-16T12:01:29;96309.06;;;26.22;45.40
10348;BME280;5220;43.192;23.284;2022-09-16T12:04:17;96303.28;;;26.25;48.85
10348;BME280;5220;43.192;23.284;2022-09-16T12:06:53;96292.16;;;26.28;45.24
10348;BME280;5220;43.192;23.284;2022-09-16T12:09:32;96256.34;;;26.36;45.29
10348;BME280;5220;43.192;23.284;2022-09-16T12:12:09;96248.69;;;26.09;44.89
10348;BME280;5220;43.192;23.284;2022-09-16T12:15:12;96236.16;;;26.28;45.71
10348;BME280;5220;43.192;23.284;2022-09-16T12:17:49;96247.91;;;26.39;45.73
10348;BME280;5220;43.192;23.284;2022-09-16T12:20:23;96246.97;;;26.33;45.76
10348;BME280;5220;43.192;23.284;2022-09-16T12:22:56;96261.69;;;26.36;45.73
10348;BME280;5220;43.192;23.284;2022-09-16T12:25:27;96259.94;;;26.30;45.09
10348;BME280;5220;43.192;23.284;2022-09-16T12:28:01;96271.19;;;26.32;43.70
10348;BME280;5220;43.192;23.284;2022-09-16T12:30:34;96274.38;;;26.40;44.51
10348;BME280;5220;43.192;23.284;2022-09-16T12:33:08;96261.34;;;26.32;43.17
10348;BME280;5220;43.192;23.284;2022-09-16T12:35:46;96275.69;;;26.31;43.49
10348;BME280;5220;43.192;23.284;2022-09-16T12:38:20;96266.47;;;26.34;44.01
10348;BME280;5220;43.192;23.284;2022-09-16T12:41:02;96266.38;;;26.22;43.09
10348;BME280;5220;43.192;23.284;2022-09-16T12:43:54;96278.03;;;26.28;43.56
10348;BME280;5220;43.192;23.284;2022-09-16T12:52:22;96278.13;;;26.21;43.48
10348;BME280;5220;43.192;23.284;2022-09-16T12:58:36;96289.91;;;25.95;43.98
10348;BME280;5220;43.192;23.284;2022-09-16T13:01:14;96284.66;;;25.89;44.01
10348;BME280;5220;43.192;23.284;2022-09-16T13:03:47;96270.41;;;25.95;43.98
10348;BME280;5220;43.192;23.284;2022-09-16T13:06:22;96272.34;;;25.88;44.42
10348;BME280;5220;43.192;23.284;2022-09-16T13:08:52;96272.34;;;25.88;44.56
10348;BME280;5220;43.192;23.284;2022-09-16T13:11:21;96274.66;;;26.02;44.52
10348;BME280;5220;43.192;23.284;2022-09-16T13:16:55;96289.44;;;25.98;43.60
10348;BME280;5220;43.192;23.284;2022-09-16T13:19:34;96283.75;;;25.95;44.45
10348;BME280;5220;43.192;23.284;2022-09-16T13:22:19;96298.75;;;26.07;44.08
10348;BME280;5220;43.192;23.284;2022-09-16T13:31:46;96264.53;;;25.75;45.15
10348;BME280;5220;43.192;23.284;2022-09-16T13:34:21;96272.22;;;25.64;44.92
10348;BME280;5220;43.192;23.284;2022-09-16T13:37:13;96253.34;;;25.66;44.11
10348;BME280;5220;43.192;23.284;2022-09-16T13:39:46;96227.88;;;25.70;45.14
10348;BME280;5220;43.192;23.284;2022-09-16T13:42:17;96222.69;;;25.75;45.34
10348;BME280;5220;43.192;23.284;2022-09-16T13:44:48;96217.31;;;25.63;46.14
10348;BME280;5220;43.192;23.284;2022-09-16T13:47:27;96211.41;;;25.61;46.90
10348;BME280;5220;43.192;23.284;2022-09-16T13:49:58;96209.19;;;25.58;46.87
10348;BME280;5220;43.192;23.284;2022-09-16T13:52:28;96208.44;;;25.51;46.45
10348;BME280;5220;43.192;23.284;2022-09-16T13:58:16;96199.78;;;25.56;46.79
10348;BME280;5220;43.192;23.284;2022-09-16T14:00:56;96220.72;;;25.52;47.16
10348;BME280;5220;43.192;23.284;2022-09-16T14:07:02;96264.09;;;25.78;46.18
10348;BME280;5220;43.192;23.284;2022-09-16T14:09:38;96275.03;;;25.70;46.62
10348;BME280;5220;43.192;23.284;2022-09-16T14:12:14;96265.34;;;25.57;47.35
10348;BME280;5220;43.192;23.284;2022-09-16T14:14:43;96255.59;;;25.44;47.92
10348;BME280;5220;43.192;23.284;2022-09-16T14:17:16;96262.91;;;25.55;47.43
10348;BME280;5220;43.192;23.284;2022-09-16T14:19:57;96267.56;;;25.60;47.91
10348;BME280;5220;43.192;23.284;2022-09-16T14:25:48;96240.25;;;25.64;47.69
10348;BME280;5220;43.192;23.284;2022-09-16T14:31:36;96279.63;;;25.81;47.02
10348;BME280;5220;43.192;23.284;2022-09-16T14:34:19;96271.19;;;25.84;47.48
10348;BME280;5220;43.192;23.284;2022-09-16T14:36:48;96279.31;;;25.89;47.60
10348;BME280;5220;43.192;23.284;2022-09-16T14:39:17;96277.84;;;25.56;46.64
10348;BME280;5220;43.192;23.284;2022-09-16T14:41:50;96280.69;;;25.37;45.66
10348;BME280;5220;43.192;23.284;2022-09-16T14:44:47;96278.03;;;25.37;45.53
10348;BME280;5220;43.192;23.284;2022-09-16T14:47:17;96261.25;;;25.36;45.47
10348;BME280;5220;43.192;23.284;2022-09-16T14:49:46;96269.88;;;25.32;45.12
10348;BME280;5220;43.192;23.284;2022-09-16T14:52:18;96259.91;;;25.27;43.72
10348;BME280;5220;43.192;23.284;2022-09-16T14:55:00;96248.38;;;25.33;43.59
10348;BME280;5220;43.192;23.284;2022-09-16T14:57:29;96249.91;;;25.23;44.53
10348;BME280;5220;43.192;23.284;2022-09-16T15:00:01;96231.94;;;25.18;44.36
10348;BME280;5220;43.192;23.284;2022-09-16T15:02:32;96241.31;;;25.02;45.00
10348;BME280;5220;43.192;23.284;2022-09-16T15:05:13;96222.44;;;25.04;44.49
10348;BME280;5220;43.192;23.284;2022-09-16T15:08:13;96219.91;;;24.91;44.33
10348;BME280;5220;43.192;23.284;2022-09-16T15:10:44;96215.09;;;24.81;45.10
10348;BME280;5220;43.192;23.284;2022-09-16T15:13:15;96206.81;;;24.89;45.38
10348;BME280;5220;43.192;23.284;2022-09-16T15:15:46;96190.03;;;24.89;45.78
10348;BME280;5220;43.192;23.284;2022-09-16T15:18:21;96173.63;;;24.92;45.60